Time;durP1;ratioP1;P1;durP2;ratioP2;P2;SDS_P1;SDS_P2;PMS_P1;PMS_P2;Temp;Humidity;BMP_temperature;BMP_pressure;BME280_temperature;BME280_humidity;BME280_pressure;Samples;Min_cycle;Max_cycle;Signal;HPM_P1;HPM_P2
2021/07/15 00:01:31;;;;;;;;;11.00;7.25;;;;;22.88;51.73;101371.13;5056406;28;51168;-52
2021/07/15 00:03:56;;;;;;;;;8.75;8.75;;;;;22.86;52.34;101379.66;5067958;28;51249;-49
2021/07/15 00:06:22;;;;;;;;;8.00;7.75;;;;;22.86;52.10;101374.13;5076969;28;51368;-53
2021/07/15 00:08:52;;;;;;;;;9.25;8.75;;;;;22.85;52.13;101366.91;5076718;28;52037;-49
2021/07/15 00:11:17;;;;;;;;;10.75;7.25;;;;;22.85;51.82;101374.34;5056925;28;51355;-47
2021/07/15 00:13:43;;;;;;;;;10.50;10.50;;;;;22.84;52.22;101370.75;5076593;28;51187;-52
2021/07/15 00:16:11;;;;;;;;;7.75;7.75;;;;;22.84;51.80;101368.00;5076628;28;51182;-51
2021/07/15 00:18:41;;;;;;;;;10.25;10.00;;;;;22.83;52.41;101366.28;5076408;28;52069;-52
2021/07/15 00:21:10;;;;;;;;;11.00;8.50;;;;;22.83;52.08;101368.19;5076755;28;51052;-51
2021/07/15 00:23:36;;;;;;;;;9.75;8.75;;;;;22.83;52.25;101371.78;5076484;28;51105;-50
2021/07/15 00:26:04;;;;;;;;;8.50;7.50;;;;;22.81;52.27;101360.09;5076690;28;51246;-51
2021/07/15 00:28:32;;;;;;;;;6.50;6.50;;;;;22.80;52.47;101369.47;5076427;28;51851;-51
2021/07/15 00:30:57;;;;;;;;;10.00;7.00;;;;;22.79;51.91;101377.97;5076549;28;51099;-49
2021/07/15 00:33:23;;;;;;;;;10.00;7.00;;;;;22.78;52.09;101379.88;5076616;28;51209;-51
2021/07/15 00:35:49;;;;;;;;;9.50;8.25;;;;;22.77;52.50;101392.84;5076384;28;51173;-51
2021/07/15 00:38:14;;;;;;;;;9.50;7.50;;;;;22.78;52.08;101388.19;5076232;28;51935;-51
2021/07/15 00:40:39;;;;;;;;;7.25;7.00;;;;;22.75;52.31;101392.25;5074882;28;51086;-50
2021/07/15 00:43:06;;;;;;;;;6.00;6.00;;;;;22.75;51.90;101400.53;5055980;28;51055;-50
2021/07/15 00:45:31;;;;;;;;;8.00;8.00;;;;;22.75;52.01;101391.41;5055999;28;51191;-49
2021/07/15 00:47:57;;;;;;;;;9.75;8.00;;;;;22.74;52.05;101398.00;5055150;28;51904;-56
2021/07/15 00:50:23;;;;;;;;;9.25;8.00;;;;;22.74;51.90;101406.28;5055716;28;51075;-52
2021/07/15 00:52:50;;;;;;;;;11.25;8.75;;;;;22.74;52.38;101409.03;5055697;28;51103;-51
2021/07/15 00:55:27;;;;;;;;;10.50;10.50;;;;;22.73;52.46;101399.06;5055686;28;51155;-49
2021/07/15 00:57:53;;;;;;;;;9.00;9.00;;;;;22.73;52.54;101390.78;5055114;28;51360;-51
2021/07/15 01:00:20;;;;;;;;;11.75;10.75;;;;;22.73;52.33;101407.34;5055903;28;51324;-50
2021/07/15 01:02:46;;;;;;;;;10.25;9.00;;;;;22.70;52.67;101396.72;5057158;28;51389;-49
2021/07/15 01:05:41;;;;;;;;;9.00;9.00;;;;;22.70;52.14;101397.56;5076122;28;51131;-51
2021/07/15 01:08:09;;;;;;;;;9.50;7.75;;;;;22.69;52.01;101395.03;5075669;28;51775;-49
2021/07/15 01:10:38;;;;;;;;;10.00;9.00;;;;;22.69;52.05;101395.88;5075663;28;51070;-52
2021/07/15 01:13:12;;;;;;;;;8.50;8.50;;;;;22.68;52.30;101404.41;5075652;28;51106;-53
2021/07/15 01:16:02;;;;;;;;;11.25;11.25;;;;;22.66;52.33;101401.03;5075944;28;51112;-49
2021/07/15 01:18:41;;;;;;;;;8.75;8.50;;;;;22.67;52.56;101399.94;5075537;28;52782;-51
2021/07/15 01:21:25;;;;;;;;;8.25;8.25;;;;;22.65;52.40;101402.94;5075687;28;50923;-51
2021/07/15 01:24:08;;;;;;;;;10.75;9.00;;;;;22.64;52.75;101404.00;5075807;28;51056;-52
2021/07/15 01:27:02;;;;;;;;;9.50;9.25;;;;;22.63;52.80;101407.00;5076105;28;51190;-52
2021/07/15 01:29:53;;;;;;;;;10.50;9.25;;;;;22.62;52.69;101399.78;5075280;28;51945;-49
2021/07/15 01:32:23;;;;;;;;;10.50;9.25;;;;;22.63;52.25;101415.28;5075421;28;51161;-51
2021/07/15 01:34:51;;;;;;;;;11.50;9.75;;;;;22.60;52.44;101400.00;5075559;28;51160;-50
2021/07/15 01:37:18;;;;;;;;;11.50;10.50;;;;;22.60;52.84;101407.44;5076071;28;50964;-50
2021/07/15 01:39:46;;;;;;;;;13.00;11.00;;;;;22.58;52.23;101396.59;5075409;28;51117;-50
2021/07/15 01:42:16;;;;;;;;;9.50;8.50;;;;;22.57;52.55;101397.69;5062124;28;51417;-49
2021/07/15 01:44:42;;;;;;;;;11.25;9.25;;;;;22.57;52.27;101394.91;5055214;28;51162;-51
2021/07/15 01:47:07;;;;;;;;;7.25;7.00;;;;;22.58;52.37;101396.59;5055060;28;51363;-52
2021/07/15 01:49:33;;;;;;;;;12.50;9.00;;;;;22.56;52.31;101404.28;5054960;28;51041;-50
2021/07/15 01:52:00;;;;;;;;;13.25;8.00;;;;;22.56;52.87;101397.91;5054136;28;51448;-51
2021/07/15 01:54:27;;;;;;;;;10.25;9.25;;;;;22.56;52.64;101404.28;5054867;28;51273;-51
2021/07/15 01:56:54;;;;;;;;;14.00;11.25;;;;;22.55;52.35;101405.34;5055914;28;51063;-50
2021/07/15 01:59:23;;;;;;;;;11.25;10.50;;;;;22.55;52.72;101401.75;5055292;28;51007;-48
2021/07/15 02:01:51;;;;;;;;;12.00;10.00;;;;;22.54;52.93;101395.38;5037756;28;51398;-48
2021/07/15 02:04:17;;;;;;;;;12.25;10.25;;;;;22.54;53.03;101394.53;5070065;28;51215;-51
2021/07/15 02:06:44;;;;;;;;;12.75;9.75;;;;;22.53;52.66;101382.66;5076259;28;51150;-49
2021/07/15 02:09:11;;;;;;;;;14.00;10.75;;;;;22.52;52.73;101394.75;5075861;28;51080;-50
2021/07/15 02:11:38;;;;;;;;;12.50;11.00;;;;;22.52;53.02;101394.75;5074219;28;50998;-48
2021/07/15 02:14:07;;;;;;;;;11.00;8.00;;;;;22.52;52.67;101391.16;5076053;28;51002;-49
2021/07/15 02:16:36;;;;;;;;;10.50;9.25;;;;;22.51;52.60;101394.94;5075823;28;51006;-51
2021/07/15 02:19:04;;;;;;;;;10.00;10.00;;;;;22.51;52.57;101397.72;5075666;28;52073;-51
2021/07/15 02:21:31;;;;;;;;;14.50;10.50;;;;;22.50;52.56;101394.09;5075399;28;51567;-51
2021/07/15 02:23:58;;;;;;;;;10.75;10.75;;;;;22.51;52.68;101393.06;5075752;28;51150;-49
2021/07/15 02:26:26;;;;;;;;;11.00;9.75;;;;;22.50;52.49;101390.50;5075793;28;50961;-52
2021/07/15 02:28:52;;;;;;;;;9.25;9.25;;;;;22.50;52.95;101391.34;5075556;28;51853;-49
2021/07/15 02:31:23;;;;;;;;;10.00;9.00;;;;;22.50;53.03;101390.50;5075555;28;51072;-52
2021/07/15 02:33:56;;;;;;;;;12.50;9.00;;;;;22.49;53.13;101397.94;5075580;28;51066;-50
2021/07/15 02:36:23;;;;;;;;;9.75;8.50;;;;;22.48;52.64;101386.06;5076074;28;51190;-50
2021/07/15 02:38:53;;;;;;;;;11.75;9.25;;;;;22.48;52.96;101382.44;5075911;28;50949;-48
2021/07/15 02:41:19;;;;;;;;;11.50;9.00;;;;;22.47;52.62;101384.38;5070921;28;50994;-51
2021/07/15 02:43:47;;;;;;;;;12.00;10.50;;;;;22.47;53.10;101372.47;5055662;28;51315;-46
2021/07/15 02:46:13;;;;;;;;;11.50;9.25;;;;;22.46;53.21;101379.06;5055456;28;51238;-50
2021/07/15 02:48:38;;;;;;;;;10.25;10.00;;;;;22.45;53.28;101372.72;5055146;28;52035;-50
2021/07/15 02:51:03;;;;;;;;;10.25;8.50;;;;;22.45;52.64;101371.84;5055482;28;51025;-47
2021/07/15 02:53:29;;;;;;;;;9.25;8.50;;;;;22.43;52.99;101372.09;5055302;28;51163;-51
2021/07/15 02:56:17;;;;;;;;;9.25;9.00;;;;;22.41;52.63;101377.00;5055175;28;51210;-47
2021/07/15 02:58:56;;;;;;;;;11.75;9.00;;;;;22.44;52.90;101375.69;5044001;28;51259;-51
2021/07/15 03:01:26;;;;;;;;;8.25;7.75;;;;;22.42;52.76;101375.06;5055018;28;50994;-52
2021/07/15 03:04:25;;;;;;;;;9.50;9.00;;;;;22.42;53.00;101364.03;5067440;28;51045;-52
2021/07/15 03:06:52;;;;;;;;;10.25;9.50;;;;;22.40;52.57;101364.22;5079022;28;51109;-49
2021/07/15 03:09:38;;;;;;;;;9.75;9.75;;;;;22.39;53.42;101362.53;5078778;28;51077;-49
2021/07/15 03:12:12;;;;;;;;;9.75;8.50;;;;;22.40;52.76;101361.47;5078714;28;50949;-50
2021/07/15 03:14:42;;;;;;;;;11.00;10.50;;;;;22.39;52.86;101358.94;5060225;28;51141;-50
2021/07/15 03:17:11;;;;;;;;;8.50;8.50;;;;;22.39;53.33;101367.22;5078994;28;51095;-51
2021/07/15 03:19:40;;;;;;;;;10.50;9.50;;;;;22.39;53.03;101367.22;5078724;28;51975;-52
2021/07/15 03:22:07;;;;;;;;;10.75;10.75;;;;;22.38;53.29;101371.91;5078766;28;51228;-52
2021/07/15 03:24:36;;;;;;;;;11.00;9.75;;;;;22.38;52.84;101371.91;5078566;28;51014;-49
2021/07/15 03:27:04;;;;;;;;;10.25;10.25;;;;;22.38;53.51;101371.06;5078844;28;51303;-52
2021/07/15 03:29:31;;;;;;;;;9.25;4.50;;;;;22.38;52.95;101373.81;5078268;28;52632;-53
2021/07/15 03:31:59;;;;;;;;;11.00;9.75;;;;;22.37;53.36;101372.97;5078420;28;50914;-51
2021/07/15 03:34:31;;;;;;;;;9.25;8.75;;;;;22.37;52.91;101378.47;5078511;28;51193;-49
2021/07/15 03:36:57;;;;;;;;;12.25;11.00;;;;;22.36;53.03;101376.78;5078773;28;51167;-50
2021/07/15 03:39:23;;;;;;;;;12.75;10.50;;;;;22.35;52.85;101374.25;5078307;28;50932;-52
2021/07/15 03:41:49;;;;;;;;;10.00;10.00;;;;;22.35;53.67;101368.75;5072502;28;51461;-51
2021/07/15 03:44:16;;;;;;;;;9.75;9.00;;;;;22.34;53.21;101367.06;5058339;28;51092;-50
2021/07/15 03:46:44;;;;;;;;;9.25;9.25;;;;;22.33;53.06;101385.53;5057933;28;51025;-50
2021/07/15 03:49:10;;;;;;;;;12.00;9.50;;;;;22.33;53.57;101373.66;5057845;28;51993;-53
2021/07/15 03:51:35;;;;;;;;;11.50;11.00;;;;;22.31;53.02;101371.13;5057992;28;51079;-49
2021/07/15 03:54:02;;;;;;;;;11.75;9.75;;;;;22.29;53.62;101364.94;5057647;28;50942;-51
2021/07/15 03:56:29;;;;;;;;;12.25;10.00;;;;;22.29;53.19;101367.69;5057941;28;51029;-50
2021/07/15 03:59:00;;;;;;;;;9.50;9.50;;;;;22.28;53.66;101365.16;5057844;28;51120;-49
2021/07/15 04:01:27;;;;;;;;;10.75;10.00;;;;;22.27;53.70;101366.25;5057558;28;51307;-50
2021/07/15 04:03:54;;;;;;;;;10.00;8.00;;;;;22.26;53.66;101361.78;5068984;28;51451;-50
2021/07/15 04:06:22;;;;;;;;;10.25;10.25;;;;;22.26;53.44;101364.56;5078063;28;51328;-49
2021/07/15 04:08:50;;;;;;;;;9.75;8.50;;;;;22.24;53.75;101369.44;5078050;28;51783;-47
2021/07/15 04:11:16;;;;;;;;;13.00;11.25;;;;;22.23;53.50;101368.59;5076249;28;51079;-51
2021/07/15 04:13:44;;;;;;;;;12.25;9.25;;;;;22.23;53.39;101368.59;5077808;28;50955;-49
2021/07/15 04:16:19;;;;;;;;;8.75;8.75;;;;;22.23;53.65;101374.13;5077343;28;51245;-51
2021/07/15 04:18:47;;;;;;;;;12.25;9.25;;;;;22.23;53.67;101376.03;5077836;28;51944;-49
2021/07/15 04:21:14;;;;;;;;;12.75;12.00;;;;;22.23;54.18;101374.13;5077871;28;51427;-49
2021/07/15 04:23:41;;;;;;;;;14.25;11.00;;;;;22.25;53.62;101376.66;5077581;28;51186;-49
2021/07/15 04:26:08;;;;;;;;;10.75;9.25;;;;;22.24;53.96;101378.56;5077968;28;51293;-50
2021/07/15 04:28:35;;;;;;;;;12.50;10.75;;;;;22.24;53.60;101380.50;5077560;28;51109;-51
2021/07/15 04:31:36;;;;;;;;;9.75;9.00;;;;;22.24;54.04;101381.34;5077456;28;51350;-50
2021/07/15 04:34:02;;;;;;;;;9.75;7.75;;;;;22.24;53.63;101386.84;5077565;28;51163;-50
2021/07/15 04:36:32;;;;;;;;;10.50;9.75;;;;;22.25;53.75;101382.19;5077651;28;51178;-50
2021/07/15 04:38:59;;;;;;;;;9.00;9.00;;;;;22.23;54.08;101389.84;5077380;28;51842;-49
2021/07/15 04:41:26;;;;;;;;;9.75;8.50;;;;;22.23;54.03;101385.16;5077588;28;51415;-52
2021/07/15 04:43:55;;;;;;;;;12.00;9.00;;;;;22.24;53.75;101391.53;5058563;28;50938;-50
2021/07/15 04:46:20;;;;;;;;;11.25;11.00;;;;;22.23;53.53;101390.69;5057168;28;51371;-49
2021/07/15 04:48:47;;;;;;;;;12.75;12.50;;;;;22.22;54.00;101391.75;5056977;28;51088;-50
2021/07/15 04:51:16;;;;;;;;;11.25;9.50;;;;;22.22;53.89;101400.03;5057082;28;51166;-49
2021/07/15 04:53:42;;;;;;;;;11.50;11.50;;;;;22.22;53.72;101393.66;5056786;28;51005;-52
2021/07/15 04:56:08;;;;;;;;;10.25;9.25;;;;;22.22;53.82;101405.56;5056815;28;51001;-50
2021/07/15 04:58:33;;;;;;;;;12.50;11.00;;;;;22.21;53.63;101409.38;5056619;28;51075;-49
2021/07/15 05:00:59;;;;;;;;;10.75;10.00;;;;;22.20;54.06;101396.66;5056495;28;51020;-49
2021/07/15 05:03:32;;;;;;;;;11.25;9.50;;;;;22.19;54.06;101404.06;5063812;28;51066;-52
2021/07/15 05:06:02;;;;;;;;;9.25;8.25;;;;;22.19;53.82;101406.81;5077146;28;51042;-49
2021/07/15 05:08:28;;;;;;;;;10.50;10.50;;;;;22.19;53.55;101395.78;5076779;28;51015;-48
2021/07/15 05:10:54;;;;;;;;;11.00;10.25;;;;;22.20;53.49;101396.66;5076703;28;51028;-50
2021/07/15 05:13:19;;;;;;;;;6.00;6.00;;;;;22.19;53.99;101400.44;5076877;28;51067;-51
2021/07/15 05:15:49;;;;;;;;;15.00;12.00;;;;;22.19;53.50;101393.03;5076802;28;50983;-51
2021/07/15 05:18:14;;;;;;;;;12.50;11.00;;;;;22.19;53.97;101394.94;5076722;28;51087;-50
2021/07/15 05:20:40;;;;;;;;;9.00;9.00;;;;;22.19;53.63;101395.78;5075163;28;51138;-50
2021/07/15 05:23:05;;;;;;;;;14.75;10.50;;;;;22.20;54.07;101391.13;5076690;28;51200;-51
2021/07/15 05:25:31;;;;;;;;;11.00;11.00;;;;;22.20;53.58;101391.13;5076835;28;51063;-51
2021/07/15 05:27:56;;;;;;;;;12.50;10.50;;;;;22.19;54.02;101392.19;5075328;28;51004;-52
2021/07/15 05:30:21;;;;;;;;;8.50;8.50;;;;;22.19;53.77;101405.97;5076891;28;51173;-51
2021/07/15 05:32:47;;;;;;;;;10.00;8.00;;;;;22.17;54.02;101397.91;5076463;28;51043;-51
2021/07/15 05:35:13;;;;;;;;;8.75;7.75;;;;;22.19;53.68;101397.69;5076671;28;51263;-50
2021/07/15 05:37:40;;;;;;;;;10.50;8.25;;;;;22.19;53.96;101408.72;5076296;28;51011;-49
2021/07/15 05:40:06;;;;;;;;;9.00;8.00;;;;;22.18;53.85;101413.41;5076499;28;51058;-52
2021/07/15 05:42:32;;;;;;;;;11.25;9.75;;;;;22.19;54.04;101414.25;5068743;28;51121;-50
2021/07/15 05:44:57;;;;;;;;;10.00;10.00;;;;;22.19;54.04;101417.00;5056107;28;51170;-47
2021/07/15 05:47:23;;;;;;;;;7.25;7.00;;;;;22.19;53.58;101419.75;5055543;28;51781;-52
2021/07/15 05:49:48;;;;;;;;;9.75;9.50;;;;;22.19;53.50;101422.53;5056093;28;51064;-51
2021/07/15 05:52:13;;;;;;;;;12.00;11.25;;;;;22.20;53.51;101418.72;5056126;28;51187;-52
2021/07/15 05:54:39;;;;;;;;;9.00;8.00;;;;;22.20;53.72;101424.25;5055778;28;51163;-52
2021/07/15 05:57:06;;;;;;;;;11.50;11.50;;;;;22.21;53.65;101422.34;5055560;28;51083;-51
2021/07/15 05:59:33;;;;;;;;;9.50;9.50;;;;;22.21;54.06;101422.34;5055667;28;51335;-47
2021/07/15 06:01:58;;;;;;;;;10.00;9.00;;;;;22.21;54.05;101425.09;5055451;28;50947;-51
2021/07/15 06:04:24;;;;;;;;;10.75;10.75;;;;;22.20;53.54;101427.00;5071312;28;51163;-46
2021/07/15 06:06:49;;;;;;;;;10.25;10.00;;;;;22.20;53.57;101418.72;5057717;28;52194;-52
2021/07/15 06:09:14;;;;;;;;;12.25;9.75;;;;;22.20;53.72;101421.50;5074745;28;50938;-46
2021/07/15 06:11:40;;;;;;;;;11.75;10.50;;;;;22.21;53.92;101422.34;5064262;28;51082;-51
2021/07/15 06:14:06;;;;;;;;;11.00;11.00;;;;;22.20;54.05;101424.25;5066808;28;51367;-50
2021/07/15 06:16:31;;;;;;;;;13.25;11.00;;;;;22.20;53.83;101427.00;5067658;28;51190;-48
2021/07/15 06:18:57;;;;;;;;;9.00;9.00;;;;;22.19;53.69;101417.84;5071582;28;50938;-51
2021/07/15 06:21:22;;;;;;;;;11.00;11.00;;;;;22.19;53.90;101434.41;5074703;28;51424;-53
2021/07/15 06:23:47;;;;;;;;;12.25;9.00;;;;;22.19;53.73;101428.03;5075846;28;51087;-52
2021/07/15 06:26:13;;;;;;;;;9.00;7.00;;;;;22.18;54.14;101423.59;5071746;28;51608;-51
2021/07/15 06:28:38;;;;;;;;;9.25;8.50;;;;;22.17;54.08;101432.94;5072644;28;51318;-52
2021/07/15 06:31:04;;;;;;;;;10.25;8.75;;;;;22.18;54.03;101432.72;5065637;28;51148;-51
2021/07/15 06:33:30;;;;;;;;;10.75;10.25;;;;;22.17;53.75;101435.69;5068926;28;51117;-50
2021/07/15 06:35:56;;;;;;;;;12.00;10.00;;;;;22.18;54.14;101440.16;5066763;28;52462;-49
2021/07/15 06:38:23;;;;;;;;;10.50;8.75;;;;;22.18;53.98;101434.63;5071209;28;51250;-50
2021/07/15 06:40:56;;;;;;;;;14.00;10.00;;;;;22.18;53.67;101448.44;5076617;28;51223;-51
2021/07/15 06:43:21;;;;;;;;;11.50;10.25;;;;;22.17;54.24;101441.22;5059771;28;51036;-52
2021/07/15 06:45:46;;;;;;;;;12.75;9.00;;;;;22.17;54.27;101436.56;5073654;27;52077;-52
2021/07/15 06:48:12;;;;;;;;;10.75;10.75;;;;;22.16;54.25;101445.91;5074822;28;51023;-53
2021/07/15 06:50:37;;;;;;;;;10.50;9.25;;;;;22.15;53.72;101444.22;5074056;28;51200;-52
2021/07/15 06:53:02;;;;;;;;;9.75;9.50;;;;;22.15;54.26;101454.41;5076908;28;51120;-51
2021/07/15 06:55:28;;;;;;;;;12.50;10.00;;;;;22.14;54.11;101450.78;5069510;28;51816;-51
2021/07/15 06:57:53;;;;;;;;;12.50;10.25;;;;;22.13;54.38;101446.34;5075615;28;51194;-51
2021/07/15 07:00:20;;;;;;;;;11.75;9.25;;;;;22.12;54.49;101435.53;5074893;28;50843;-51
2021/07/15 07:02:46;;;;;;;;;8.00;8.00;;;;;22.11;54.19;101440.19;5073806;28;51396;-53
2021/07/15 07:05:13;;;;;;;;;10.00;9.00;;;;;22.10;54.31;101437.66;5070511;28;51700;-49
2021/07/15 07:07:38;;;;;;;;;13.25;11.00;;;;;22.11;54.47;101442.13;5073597;28;51508;-52
2021/07/15 07:10:09;;;;;;;;;12.00;12.00;;;;;22.10;54.33;101441.28;5073447;28;50941;-51
2021/07/15 07:12:35;;;;;;;;;11.50;10.75;;;;;22.10;54.08;101429.38;5067893;28;51220;-52
2021/07/15 07:15:01;;;;;;;;;11.50;11.00;;;;;22.10;54.54;101444.03;5073485;28;51631;-50
2021/07/15 07:17:27;;;;;;;;;10.25;9.25;;;;;22.10;53.99;101434.91;5077031;28;51313;-52
2021/07/15 07:19:52;;;;;;;;;9.00;9.00;;;;;22.10;54.35;101437.66;5075076;28;51122;-51
2021/07/15 07:22:18;;;;;;;;;9.50;9.50;;;;;22.10;54.00;101437.66;5068852;28;51372;-51
2021/07/15 07:24:43;;;;;;;;;10.00;10.00;;;;;22.10;54.37;101441.28;5072826;28;51935;-50
2021/07/15 07:27:08;;;;;;;;;12.50;9.25;;;;;22.12;53.91;101438.28;5075144;28;52852;-53
2021/07/15 07:29:34;;;;;;;;;13.50;11.75;;;;;22.12;54.43;101447.41;5076564;28;51083;-50
2021/07/15 07:31:59;;;;;;;;;11.75;8.25;;;;;22.12;54.43;101439.13;5075744;28;51291;-53
2021/07/15 07:34:25;;;;;;;;;9.75;8.00;;;;;22.13;54.15;101440.81;5076381;28;51151;-52
2021/07/15 07:36:50;;;;;;;;;10.00;9.75;;;;;22.14;53.99;101431.47;5075002;28;51050;-52
2021/07/15 07:39:16;;;;;;;;;10.50;10.50;;;;;22.18;54.24;101437.41;5077473;28;51110;-53
2021/07/15 07:41:41;;;;;;;;;7.75;7.75;;;;;22.22;54.38;101435.06;5073999;28;51309;-52
2021/07/15 07:44:07;;;;;;;;;10.50;10.00;;;;;22.24;53.92;101441.19;5072760;28;52153;-52
2021/07/15 07:46:32;;;;;;;;;10.00;9.00;;;;;22.27;54.13;101440.75;5074271;28;51004;-51
2021/07/15 07:48:58;;;;;;;;;8.75;8.00;;;;;22.27;53.78;101440.75;5077293;28;51048;-51
2021/07/15 07:51:23;;;;;;;;;8.75;8.00;;;;;22.29;54.19;101438.63;5071472;28;51350;-55
2021/07/15 07:53:49;;;;;;;;;10.75;9.25;;;;;22.31;53.82;101442.03;5070624;28;51867;-52
2021/07/15 07:56:15;;;;;;;;;10.00;9.00;;;;;22.31;54.35;101439.28;5073258;28;51072;-55
2021/07/15 07:58:41;;;;;;;;;8.00;7.75;;;;;22.33;54.19;101443.50;5070267;28;50974;-53
2021/07/15 08:01:06;;;;;;;;;8.75;8.25;;;;;22.33;54.28;101446.25;5072997;28;50936;-52
2021/07/15 08:03:32;;;;;;;;;7.75;7.75;;;;;22.35;53.85;101444.13;5072003;28;51041;-53
2021/07/15 08:05:57;;;;;;;;;13.50;10.50;;;;;22.37;54.46;101438.38;5074264;28;50938;-55
2021/07/15 08:08:23;;;;;;;;;14.50;9.50;;;;;22.39;54.57;101427.94;5064755;28;51108;-55
2021/07/15 08:10:49;;;;;;;;;9.75;8.75;;;;;22.40;53.89;101427.72;5072946;28;51075;-56
2021/07/15 08:13:15;;;;;;;;;8.50;8.50;;;;;22.44;54.16;101433.66;5057166;28;50986;-55
2021/07/15 08:15:40;;;;;;;;;7.25;7.25;;;;;22.46;53.91;101428.75;5069688;28;51324;-56
2021/07/15 08:18:06;;;;;;;;;10.00;7.50;;;;;22.47;53.76;101428.53;5072686;28;51267;-56
2021/07/15 08:20:31;;;;;;;;;11.00;10.25;;;;;22.47;53.91;101423.00;5057631;28;51270;-55
2021/07/15 08:22:57;;;;;;;;;11.25;9.75;;;;;22.50;54.14;101423.63;5056606;28;51040;-55
2021/07/15 08:25:23;;;;;;;;;8.25;8.25;;;;;22.51;54.38;101419.81;5057007;28;51170;-54
2021/07/15 08:27:49;;;;;;;;;12.25;10.50;;;;;22.53;54.43;101420.44;5057078;28;51002;-54
2021/07/15 08:30:16;;;;;;;;;11.25;9.00;;;;;22.53;54.22;101417.69;5057251;28;51358;-55
2021/07/15 08:32:41;;;;;;;;;10.50;9.75;;;;;22.54;54.16;101420.22;5056413;28;52049;-55
2021/07/15 08:35:07;;;;;;;;;11.25;8.75;;;;;22.56;53.57;101417.22;5056520;28;51021;-55
2021/07/15 08:37:34;;;;;;;;;8.50;8.50;;;;;22.55;54.12;101416.41;5057182;28;51164;-55
2021/07/15 08:39:59;;;;;;;;;8.25;7.25;;;;;22.56;53.94;101411.72;5056758;28;51082;-56
2021/07/15 08:42:27;;;;;;;;;7.25;7.25;;;;;22.57;54.06;101413.41;5056865;28;51021;-53
2021/07/15 08:44:53;;;;;;;;;10.25;7.00;;;;;22.57;53.84;101405.13;5071120;28;51023;-55
2021/07/15 08:47:19;;;;;;;;;9.00;7.50;;;;;22.58;53.82;101407.66;5076689;28;51166;-54
2021/07/15 08:49:45;;;;;;;;;9.00;8.00;;;;;22.59;53.90;101406.59;5077079;28;51245;-54
2021/07/15 08:52:13;;;;;;;;;7.75;6.25;;;;;22.60;53.81;101407.44;5076601;28;52637;-53
2021/07/15 08:57:23;;;;;;;;;9.00;8.75;;;;;22.63;53.50;101405.09;5076840;28;51183;-54
2021/07/15 08:59:49;;;;;;;;;8.50;8.50;;;;;22.64;53.81;101406.78;5076726;28;51068;-55
2021/07/15 09:02:19;;;;;;;;;9.00;9.00;;;;;22.65;53.59;101404.84;5076417;28;51260;-55
2021/07/15 09:04:45;;;;;;;;;10.50;7.25;;;;;22.67;53.67;101399.94;5058395;28;51393;-54
2021/07/15 09:07:11;;;;;;;;;9.00;7.75;;;;;22.69;53.44;101411.63;5056555;28;51225;-54
2021/07/15 09:09:36;;;;;;;;;7.75;7.25;;;;;22.70;53.63;101418.81;5056457;28;50995;-55
2021/07/15 09:12:02;;;;;;;;;8.00;8.00;;;;;22.71;52.97;101409.47;5055900;28;55373;-56
2021/07/15 09:14:27;;;;;;;;;10.75;7.75;;;;;22.71;53.60;101428.81;5056505;28;50961;-55
2021/07/15 09:16:56;;;;;;;;;10.25;9.50;;;;;22.73;53.03;101418.41;5056450;28;51021;-56
2021/07/15 09:19:23;;;;;;;;;9.00;9.00;;;;;22.74;53.32;101417.31;5056367;28;51012;-54
2021/07/15 09:21:50;;;;;;;;;6.00;6.00;;;;;22.75;52.98;101417.09;5055996;28;51328;-57
2021/07/15 09:24:39;;;;;;;;;6.50;6.00;;;;;22.77;53.12;101422.41;5055828;28;51713;-54
2021/07/15 09:27:10;;;;;;;;;9.75;6.25;;;;;22.79;53.19;101417.50;5056163;28;51051;-55
2021/07/15 09:29:36;;;;;;;;;10.00;8.00;;;;;22.80;52.60;101412.81;5037665;28;51312;-56
2021/07/15 09:32:02;;;;;;;;;10.00;8.00;;;;;22.80;52.68;101418.34;5055730;28;51528;-56
2021/07/15 09:34:32;;;;;;;;;7.25;6.75;;;;;22.81;52.58;101422.78;5055936;28;51119;-54
2021/07/15 09:37:07;;;;;;;;;7.75;7.00;;;;;22.82;52.90;101422.56;5056088;28;51048;-55
2021/07/15 09:39:42;;;;;;;;;7.00;6.50;;;;;22.83;52.45;101426.19;5056100;28;51068;-55
2021/07/15 09:42:18;;;;;;;;;6.75;6.25;;;;;22.83;52.41;101424.28;5055615;28;52901;-56
2021/07/15 09:44:46;;;;;;;;;8.25;6.50;;;;;22.85;52.91;101426.84;5065091;28;51025;-55
2021/07/15 09:47:33;;;;;;;;;7.50;6.00;;;;;22.86;52.64;101432.13;5075730;28;51154;-57
2021/07/15 09:50:00;;;;;;;;;6.75;6.50;;;;;22.87;52.34;101432.97;5076089;28;51288;-55
2021/07/15 09:52:25;;;;;;;;;6.75;6.75;;;;;22.87;52.55;101438.50;5075821;28;52984;-54
2021/07/15 09:54:51;;;;;;;;;9.75;9.00;;;;;22.88;52.32;101421.69;5072403;28;51875;-57
2021/07/15 09:57:27;;;;;;;;;7.25;6.50;;;;;22.89;52.47;101428.91;5075774;28;51058;-56
2021/07/15 09:59:53;;;;;;;;;3.75;3.00;;;;;22.90;52.51;101436.13;5075898;28;51467;-55
2021/07/15 10:02:31;;;;;;;;;7.00;5.75;;;;;22.90;52.28;101436.13;5075528;28;51353;-56
2021/07/15 10:04:57;;;;;;;;;7.50;7.50;;;;;22.91;52.27;101443.34;5055788;28;51157;-57
2021/07/15 10:07:26;;;;;;;;;5.25;5.25;;;;;22.92;52.35;101435.91;5055497;28;51210;-55
2021/07/15 10:10:17;;;;;;;;;7.75;6.00;;;;;22.93;52.06;101440.38;5055551;28;51016;-56
2021/07/15 10:12:43;;;;;;;;;5.25;4.75;;;;;22.93;52.62;101440.38;5054496;28;52386;-56
2021/07/15 10:15:10;;;;;;;;;5.00;4.25;;;;;22.94;52.28;101436.56;5054944;28;51106;-56
2021/07/15 10:17:43;;;;;;;;;9.00;6.75;;;;;22.94;52.38;101433.78;5055329;28;51643;-54
2021/07/15 10:20:19;;;;;;;;;7.00;7.00;;;;;22.94;52.05;101437.41;5055212;28;51133;-56
2021/07/15 10:22:53;;;;;;;;;6.50;6.50;;;;;22.95;52.25;101438.25;5054485;28;51024;-56
2021/07/15 10:25:19;;;;;;;;;4.75;4.50;;;;;22.95;51.89;101430.78;5036698;28;51379;-54
2021/07/15 10:27:44;;;;;;;;;8.50;7.75;;;;;22.97;52.26;101431.41;5055098;28;51273;-52
2021/07/15 10:30:11;;;;;;;;;7.25;7.25;;;;;22.97;52.37;101445.22;5055641;28;51183;-57
2021/07/15 10:32:37;;;;;;;;;6.75;5.25;;;;;22.97;51.96;101436.94;5054671;28;51749;-56
2021/07/15 10:35:05;;;;;;;;;8.25;6.25;;;;;22.98;52.02;101446.06;5036224;28;51168;-56
2021/07/15 10:37:37;;;;;;;;;7.00;6.25;;;;;22.99;52.00;101443.06;5055063;28;51095;-56
2021/07/15 10:40:04;;;;;;;;;6.75;6.25;;;;;22.99;51.98;101445.84;5054568;28;51288;-54
2021/07/15 10:42:31;;;;;;;;;7.50;7.50;;;;;22.99;52.23;101445.00;5053927;28;51290;-56
2021/07/15 10:44:57;;;;;;;;;7.25;5.50;;;;;23.00;52.19;101442.00;5060917;28;51106;-55
2021/07/15 10:47:26;;;;;;;;;8.00;7.25;;;;;23.01;51.78;101446.47;5074307;28;51008;-54
2021/07/15 10:49:52;;;;;;;;;7.50;7.50;;;;;23.02;51.71;101445.38;5074677;28;51081;-56
2021/07/15 10:52:19;;;;;;;;;8.50;8.25;;;;;23.02;51.61;101445.38;5074376;28;51908;-56
2021/07/15 10:54:46;;;;;;;;;4.75;4.75;;;;;23.03;52.29;101435.16;5074390;28;51484;-56
2021/07/15 10:57:12;;;;;;;;;5.50;5.50;;;;;23.03;51.70;101437.94;5074237;28;51212;-56
2021/07/15 10:59:37;;;;;;;;;7.50;5.50;;;;;23.05;51.85;101446.88;5075062;28;50926;-56
2021/07/15 11:02:19;;;;;;;;;7.00;6.50;;;;;23.06;52.04;101453.25;5074287;28;51034;-55
2021/07/15 11:04:44;;;;;;;;;6.75;6.75;;;;;23.05;51.81;101446.88;5056181;28;51418;-55
2021/07/15 11:07:27;;;;;;;;;7.00;7.00;;;;;23.07;51.61;101446.63;5053857;28;51113;-54
2021/07/15 11:10:12;;;;;;;;;8.25;6.00;;;;;23.06;52.12;101444.94;5054214;28;51977;-54
2021/07/15 11:12:38;;;;;;;;;8.50;6.00;;;;;23.08;51.67;101448.34;5054038;28;52937;-55
2021/07/15 11:15:09;;;;;;;;;6.75;6.75;;;;;23.08;51.90;101448.34;5053737;28;51070;-56
2021/07/15 11:17:40;;;;;;;;;5.75;5.25;;;;;23.08;51.88;101443.66;5054205;28;51051;-56
2021/07/15 11:20:09;;;;;;;;;5.50;5.50;;;;;23.11;51.78;101450.63;5054195;28;50902;-55
2021/07/15 11:22:42;;;;;;;;;8.00;6.75;;;;;23.10;52.11;101441.50;5053735;28;52095;-56
2021/07/15 11:25:14;;;;;;;;;6.00;6.00;;;;;23.11;51.85;101447.88;5053634;28;51306;-57
2021/07/15 11:27:50;;;;;;;;;6.00;6.00;;;;;23.11;52.06;101439.59;5057921;28;51052;-56